Time;durP1;ratioP1;P1;durP2;ratioP2;P2;SDS_P1;SDS_P2;PMS_P1;PMS_P2;Temp;Humidity;BMP_temperature;BMP_pressure;BME280_temperature;BME280_humidity;BME280_pressure;Samples;Min_cycle;Max_cycle;Signal;HPM_P1;HPM_P2
2022/10/28 00:01:06;;;;;;;15.82;9.93;;;12.60;99.90;;;;;;5042460;28;20120;-74
2022/10/28 00:03:36;;;;;;;17.13;11.60;;;12.60;99.90;;;;;;5033363;28;20071;-74
2022/10/28 00:06:06;;;;;;;16.38;10.82;;;12.60;99.90;;;;;;5031641;28;20030;-74
2022/10/28 00:08:32;;;;;;;16.25;11.25;;;12.60;99.90;;;;;;5031345;28;20097;-74
2022/10/28 00:11:06;;;;;;;13.70;10.57;;;12.60;99.90;;;;;;5031608;28;20049;-74
2022/10/28 00:13:32;;;;;;;16.75;10.95;;;12.50;99.90;;;;;;5031628;28;20017;-74
2022/10/28 00:16:10;;;;;;;15.95;9.90;;;12.50;99.90;;;;;;5044938;28;20532;-75
2022/10/28 00:18:36;;;;;;;15.20;10.27;;;12.50;99.90;;;;;;5040004;28;20536;-74
2022/10/28 00:21:04;;;;;;;13.93;10.45;;;12.60;99.90;;;;;;5036171;28;20031;-75
2022/10/28 00:23:30;;;;;;;13.60;9.27;;;12.60;99.90;;;;;;5015884;28;20379;-74
2022/10/28 00:26:12;;;;;;;14.40;10.02;;;12.60;99.90;;;;;;5042884;28;20029;-74
2022/10/28 00:28:44;;;;;;;14.77;9.63;;;12.60;99.90;;;;;;5046014;28;20132;-75
2022/10/28 00:31:12;;;;;;;17.15;9.88;;;12.60;99.90;;;;;;5031331;28;20080;-74
2022/10/28 00:33:38;;;;;;;15.93;10.40;;;12.50;99.90;;;;;;5015915;28;20120;-74
2022/10/28 00:36:09;;;;;;;14.43;9.75;;;12.60;99.90;;;;;;5035361;28;20432;-76
2022/10/28 00:38:35;;;;;;;12.40;10.25;;;12.50;99.90;;;;;;5035177;28;20033;-73
2022/10/28 00:41:00;;;;;;;16.90;9.88;;;12.50;99.90;;;;;;5035249;28;20391;-74
2022/10/28 00:43:44;;;;;;;17.02;9.68;;;12.50;99.90;;;;;;5035309;28;20025;-74
2022/10/28 00:46:19;;;;;;;15.77;9.40;;;12.50;99.90;;;;;;5052066;28;20025;-74
2022/10/28 00:48:49;;;;;;;14.68;8.52;;;12.50;99.90;;;;;;5034929;28;20032;-74
2022/10/28 00:51:18;;;;;;;13.75;9.35;;;12.40;99.90;;;;;;5035117;28;20018;-73
2022/10/28 00:53:47;;;;;;;17.83;9.15;;;12.40;99.90;;;;;;5034985;28;20483;-74
2022/10/28 00:56:14;;;;;;;12.88;10.10;;;12.40;99.90;;;;;;5035117;28;20105;-74
2022/10/28 00:58:40;;;;;;;12.70;8.55;;;12.30;99.90;;;;;;5048042;28;20028;-75
2022/10/28 01:01:06;;;;;;;16.25;10.07;;;12.30;99.90;;;;;;5034871;28;20033;-74
2022/10/28 01:03:31;;;;;;;14.20;8.93;;;12.30;99.90;;;;;;5040091;28;20096;-74
2022/10/28 01:05:58;;;;;;;11.38;9.32;;;12.20;99.90;;;;;;5043700;28;20109;-73
2022/10/28 01:08:23;;;;;;;12.07;9.07;;;12.30;99.90;;;;;;5034574;28;20480;-73
2022/10/28 01:11:07;;;;;;;15.68;9.38;;;12.30;99.90;;;;;;5034702;28;20080;-73
2022/10/28 01:13:43;;;;;;;14.52;9.55;;;12.20;99.90;;;;;;5034724;28;20509;-73
2022/10/28 01:16:32;;;;;;;15.63;10.50;;;12.20;99.90;;;;;;5034827;28;20021;-73
2022/10/28 01:19:24;;;;;;;13.38;9.52;;;12.20;99.90;;;;;;5034647;28;20037;-73
2022/10/28 01:22:01;;;;;;;13.10;9.13;;;12.10;99.90;;;;;;5032846;28;20034;-73
2022/10/28 01:24:53;;;;;;;21.35;11.65;;;12.20;99.90;;;;;;5034553;28;20033;-73
2022/10/28 01:27:36;;;;;;;12.77;10.35;;;12.10;99.90;;;;;;5011666;28;20116;-72
2022/10/28 01:30:15;;;;;;;11.65;10.10;;;12.10;99.90;;;;;;5034471;28;20075;-73
2022/10/28 01:32:44;;;;;;;17.13;10.18;;;12.00;99.90;;;;;;5034618;28;20057;-73
2022/10/28 01:35:21;;;;;;;12.25;10.93;;;12.10;99.90;;;;;;5016637;28;20029;-72
2022/10/28 01:38:18;;;;;;;17.17;9.98;;;12.00;99.90;;;;;;5016234;28;20022;-73
2022/10/28 01:40:52;;;;;;;19.20;13.02;;;12.00;99.90;;;;;;5034212;28;20024;-73
2022/10/28 01:43:44;;;;;;;15.55;11.07;;;11.80;99.90;;;;;;5034299;28;20387;-73
2022/10/28 01:46:36;;;;;;;15.77;12.50;;;11.80;99.90;;;;;;5034266;28;20021;-74
2022/10/28 01:49:15;;;;;;;14.93;12.10;;;11.90;99.90;;;;;;5033966;28;20021;-74
2022/10/28 01:51:45;;;;;;;20.40;13.30;;;11.90;99.90;;;;;;5033925;28;20525;-73
2022/10/28 01:54:16;;;;;;;16.55;11.95;;;11.90;99.90;;;;;;5034039;28;20044;-74
2022/10/28 01:56:42;;;;;;;17.35;12.05;;;12.00;99.90;;;;;;5033929;28;20049;-73
2022/10/28 01:59:15;;;;;;;16.80;12.60;;;12.00;99.90;;;;;;5033715;28;20111;-74
2022/10/28 02:01:40;;;;;;;15.82;11.95;;;12.30;99.90;;;;;;5033748;28;20030;-74
2022/10/28 02:04:06;;;;;;;17.27;13.57;;;12.10;99.90;;;;;;5033777;28;20068;-72
2022/10/28 02:06:33;;;;;;;14.57;12.13;;;12.10;99.90;;;;;;5033693;28;20029;-73
2022/10/28 02:09:30;;;;;;;20.38;12.95;;;12.10;99.90;;;;;;5033623;28;20553;-73
2022/10/28 02:12:16;;;;;;;17.50;13.85;;;12.10;99.90;;;;;;5025144;28;20109;-72
2022/10/28 02:15:00;;;;;;;14.20;12.70;;;12.00;99.90;;;;;;5037695;28;20112;-74
2022/10/28 02:18:04;;;;;;;16.08;12.77;;;11.80;99.90;;;;;;5021993;28;20379;-74
2022/10/28 02:20:48;;;;;;;13.63;11.25;;;11.90;99.90;;;;;;5035985;28;20052;-75
2022/10/28 02:23:32;;;;;;;15.30;11.38;;;12.00;99.90;;;;;;5023751;28;20021;-73
2022/10/28 02:26:13;;;;;;;15.63;12.15;;;12.10;99.90;;;;;;5028938;28;20045;-74
2022/10/28 02:29:07;;;;;;;15.10;11.60;;;12.10;99.90;;;;;;5027538;28;20043;-73
2022/10/28 02:31:47;;;;;;;13.13;11.55;;;12.10;99.90;;;;;;5032409;28;20025;-72
2022/10/28 02:34:22;;;;;;;16.23;11.68;;;12.10;99.90;;;;;;5039677;28;20104;-74
2022/10/28 02:36:54;;;;;;;16.92;10.95;;;12.00;99.90;;;;;;5022692;28;20025;-77
2022/10/28 02:39:25;;;;;;;15.45;11.60;;;12.00;99.90;;;;;;5022020;28;20036;-73
2022/10/28 02:42:01;;;;;;;17.67;11.98;;;12.00;99.90;;;;;;5039665;28;20032;-76
2022/10/28 02:44:33;;;;;;;15.00;10.48;;;12.00;99.90;;;;;;5044646;28;20032;-73
2022/10/28 02:47:04;;;;;;;15.73;12.77;;;12.00;99.90;;;;;;5017903;28;20032;-74
2022/10/28 02:49:34;;;;;;;16.90;13.18;;;12.00;99.90;;;;;;5043171;28;20040;-74
2022/10/28 02:52:04;;;;;;;14.80;12.00;;;12.00;99.90;;;;;;5032911;28;20025;-74
2022/10/28 02:54:46;;;;;;;18.08;13.15;;;11.90;99.90;;;;;;5043810;28;20023;-74
2022/10/28 02:57:19;;;;;;;18.25;12.52;;;11.90;99.90;;;;;;5021142;28;20031;-74
2022/10/28 02:59:57;;;;;;;14.40;10.30;;;11.80;99.90;;;;;;5021504;28;20032;-74
2022/10/28 03:02:23;;;;;;;17.13;10.95;;;11.90;99.90;;;;;;5025296;28;20029;-73
2022/10/28 03:04:49;;;;;;;20.88;11.38;;;11.90;99.90;;;;;;5044087;28;20033;-74
2022/10/28 03:07:15;;;;;;;12.52;9.75;;;12.00;99.90;;;;;;5044956;28;20052;-73
2022/10/28 03:09:40;;;;;;;14.90;10.00;;;12.00;99.90;;;;;;5038289;28;20033;-74
2022/10/28 03:12:06;;;;;;;15.20;10.23;;;12.10;99.90;;;;;;5042845;28;20032;-74
2022/10/28 03:14:32;;;;;;;14.38;10.73;;;12.20;99.90;;;;;;5034023;28;20025;-75
2022/10/28 03:16:57;;;;;;;15.68;10.57;;;12.20;99.90;;;;;;5042689;28;20021;-74
2022/10/28 03:19:23;;;;;;;16.17;10.85;;;12.20;99.90;;;;;;5044942;28;20040;-74
2022/10/28 03:21:49;;;;;;;13.32;10.68;;;12.20;99.90;;;;;;5040816;28;20018;-75
2022/10/28 03:24:14;;;;;;;18.23;11.35;;;12.10;99.90;;;;;;5038161;28;20044;-74
2022/10/28 03:26:40;;;;;;;16.33;11.13;;;12.10;99.90;;;;;;5024739;28;20025;-75
2022/10/28 03:29:06;;;;;;;14.52;10.55;;;12.00;99.90;;;;;;5031243;28;20028;-74
2022/10/28 03:31:31;;;;;;;17.90;10.75;;;11.90;99.90;;;;;;5013662;28;20052;-73
2022/10/28 03:33:57;;;;;;;15.48;11.05;;;12.00;99.90;;;;;;5031164;28;20638;-73
2022/10/28 03:36:22;;;;;;;13.02;10.55;;;12.00;99.90;;;;;;5031469;28;20049;-73
2022/10/28 03:38:48;;;;;;;15.07;11.90;;;12.00;99.90;;;;;;5031119;28;20451;-74
2022/10/28 03:41:13;;;;;;;17.23;12.82;;;12.00;99.90;;;;;;5031155;28;20032;-74
2022/10/28 03:43:39;;;;;;;17.33;12.68;;;11.80;99.90;;;;;;5046602;28;20063;-73
2022/10/28 03:46:04;;;;;;;17.45;11.95;;;11.70;99.90;;;;;;5048799;28;20048;-74
2022/10/28 03:48:30;;;;;;;22.17;13.10;;;11.70;99.90;;;;;;5030846;28;20105;-73
2022/10/28 03:50:55;;;;;;;13.93;11.30;;;11.70;99.90;;;;;;5031047;28;20110;-73
2022/10/28 03:53:21;;;;;;;15.50;12.85;;;11.70;99.90;;;;;;5031017;28;20068;-73
2022/10/28 03:55:55;;;;;;;20.05;14.38;;;11.70;99.90;;;;;;5030651;28;20069;-74
2022/10/28 03:58:21;;;;;;;21.33;13.88;;;11.70;99.90;;;;;;5036884;28;20033;-74
2022/10/28 04:00:51;;;;;;;20.02;12.55;;;11.50;99.90;;;;;;5002464;28;1039203;-74
2022/10/28 04:03:17;;;;;;;15.52;12.10;;;11.60;99.90;;;;;;5031608;28;20039;-74
2022/10/28 04:05:43;;;;;;;23.60;13.27;;;11.50;99.90;;;;;;5014671;28;20420;-74
2022/10/28 04:08:09;;;;;;;16.42;12.73;;;11.50;99.90;;;;;;5049136;28;20128;-74
2022/10/28 04:10:35;;;;;;;18.55;12.88;;;11.40;99.90;;;;;;5051473;28;20498;-74
2022/10/28 04:13:02;;;;;;;20.65;12.55;;;11.50;99.90;;;;;;5033596;28;20446;-73
2022/10/28 04:15:28;;;;;;;17.58;11.75;;;11.50;99.90;;;;;;5051414;28;20418;-73
2022/10/28 04:17:53;;;;;;;16.60;11.63;;;11.50;99.90;;;;;;5038470;28;20017;-73
2022/10/28 04:20:19;;;;;;;18.55;13.75;;;11.60;99.90;;;;;;5031496;28;20029;-73
2022/10/28 04:22:44;;;;;;;22.95;13.73;;;11.60;99.90;;;;;;5031417;28;20026;-73
2022/10/28 04:25:10;;;;;;;17.70;12.68;;;11.60;99.90;;;;;;5031548;28;20029;-73
2022/10/28 04:27:36;;;;;;;16.95;11.93;;;11.60;99.90;;;;;;5031339;28;20408;-72
2022/10/28 04:30:02;;;;;;;15.35;11.65;;;11.50;99.90;;;;;;5031520;28;20065;-73
2022/10/28 04:32:28;;;;;;;25.33;13.50;;;11.50;99.90;;;;;;5031378;28;20061;-74
2022/10/28 04:34:53;;;;;;;16.67;12.50;;;11.50;99.90;;;;;;5031407;28;20061;-73
2022/10/28 04:37:19;;;;;;;22.02;14.10;;;11.40;99.90;;;;;;5016777;28;20112;-74
2022/10/28 04:39:44;;;;;;;24.63;15.93;;;11.40;99.90;;;;;;5041309;28;20021;-74
2022/10/28 04:42:10;;;;;;;20.48;14.98;;;11.40;99.90;;;;;;5034949;28;20380;-75
2022/10/28 04:44:35;;;;;;;20.10;15.48;;;11.30;99.90;;;;;;5040888;28;20395;-74
2022/10/28 04:47:01;;;;;;;14.20;12.68;;;11.20;99.90;;;;;;5043999;28;20121;-74
2022/10/28 04:49:26;;;;;;;17.40;13.13;;;11.20;99.90;;;;;;5022501;28;20483;-74
2022/10/28 04:51:52;;;;;;;23.00;14.77;;;11.20;99.90;;;;;;5041464;28;20143;-74
2022/10/28 04:54:18;;;;;;;19.48;12.93;;;11.20;99.90;;;;;;5041460;28;20036;-74
2022/10/28 04:56:43;;;;;;;18.83;13.60;;;11.30;99.90;;;;;;5039350;28;20021;-74
2022/10/28 04:59:09;;;;;;;17.98;13.25;;;11.40;99.90;;;;;;5038325;28;20017;-74
2022/10/28 05:01:35;;;;;;;21.90;13.65;;;11.40;99.90;;;;;;5038597;28;20462;-73
2022/10/28 05:04:01;;;;;;;21.42;15.35;;;11.40;99.90;;;;;;5056091;28;20029;-74
2022/10/28 05:06:26;;;;;;;24.13;15.98;;;11.40;99.90;;;;;;5058632;28;20031;-74
2022/10/28 05:08:52;;;;;;;16.42;14.65;;;11.40;99.90;;;;;;5042566;28;20025;-74
2022/10/28 05:11:17;;;;;;;18.27;14.93;;;11.50;99.90;;;;;;5033989;28;20025;-74
2022/10/28 05:13:43;;;;;;;17.23;12.77;;;11.50;99.90;;;;;;5052237;28;20029;-74
2022/10/28 05:16:09;;;;;;;17.85;13.15;;;11.40;99.90;;;;;;5051840;28;20022;-74
2022/10/28 05:18:34;;;;;;;15.18;12.95;;;11.50;99.90;;;;;;5052185;28;20021;-74
2022/10/28 05:21:00;;;;;;;23.98;13.70;;;11.50;99.90;;;;;;5037675;28;20028;-74
2022/10/28 05:23:25;;;;;;;21.67;15.07;;;11.50;99.90;;;;;;5055199;28;20032;-74
2022/10/28 05:25:51;;;;;;;20.52;14.35;;;11.50;99.90;;;;;;5055035;28;20033;-74
2022/10/28 05:28:17;;;;;;;18.00;14.00;;;11.40;99.90;;;;;;5036842;28;20036;-75
2022/10/28 05:30:43;;;;;;;16.40;13.50;;;11.40;99.90;;;;;;5021822;28;20124;-74
2022/10/28 05:33:10;;;;;;;19.38;13.52;;;11.50;99.90;;;;;;5034503;28;20102;-75
2022/10/28 05:35:38;;;;;;;17.42;13.40;;;11.50;99.90;;;;;;5047656;28;20033;-74
2022/10/28 05:38:04;;;;;;;20.92;14.60;;;11.60;99.90;;;;;;5042912;28;20029;-74
2022/10/28 05:40:33;;;;;;;17.27;14.52;;;11.50;99.90;;;;;;5051460;28;20086;-74
2022/10/28 05:42:59;;;;;;;19.33;14.20;;;11.50;99.90;;;;;;5034323;28;20075;-74
2022/10/28 05:45:25;;;;;;;18.42;14.70;;;11.60;99.90;;;;;;5034118;28;20025;-74
2022/10/28 05:47:51;;;;;;;19.80;14.38;;;11.60;99.90;;;;;;5033947;28;20029;-74
2022/10/28 05:50:19;;;;;;;19.77;13.48;;;11.60;99.90;;;;;;5018911;28;20655;-75
2022/10/28 05:52:53;;;;;;;22.60;14.05;;;11.70;99.90;;;;;;5053974;28;20063;-75
2022/10/28 05:55:19;;;;;;;18.40;13.30;;;11.70;99.90;;;;;;5040732;28;20040;-74
2022/10/28 05:57:49;;;;;;;16.67;14.02;;;11.80;99.90;;;;;;5054074;28;20526;-75
2022/10/28 06:00:16;;;;;;;19.73;12.60;;;11.90;99.90;;;;;;5053700;28;20390;-74
2022/10/28 06:02:42;;;;;;;15.55;13.30;;;11.90;99.90;;;;;;5042456;28;20033;-75
2022/10/28 06:05:11;;;;;;;17.38;14.27;;;12.00;99.90;;;;;;5047459;28;20602;-74
2022/10/28 06:07:37;;;;;;;15.73;11.88;;;12.00;99.90;;;;;;5033655;28;20022;-74
2022/10/28 06:10:04;;;;;;;19.42;12.90;;;12.10;99.90;;;;;;5033717;28;20030;-73
2022/10/28 06:12:30;;;;;;;22.52;14.60;;;12.10;99.90;;;;;;5015836;28;20059;-73
2022/10/28 06:14:56;;;;;;;21.70;15.50;;;12.10;99.90;;;;;;5033563;28;20037;-73
2022/10/28 06:17:22;;;;;;;16.67;13.23;;;12.10;99.90;;;;;;5015665;28;20026;-74
2022/10/28 06:19:47;;;;;;;18.52;12.80;;;12.10;99.90;;;;;;5037772;28;20041;-74
2022/10/28 06:22:13;;;;;;;20.83;13.57;;;12.10;99.90;;;;;;5053240;28;20101;-74
2022/10/28 06:24:38;;;;;;;13.88;11.15;;;12.10;99.90;;;;;;5053202;28;20025;-74
2022/10/28 06:27:04;;;;;;;19.73;11.48;;;12.10;99.90;;;;;;5052888;28;20029;-73
2022/10/28 06:29:31;;;;;;;15.02;11.85;;;12.20;99.90;;;;;;5047778;28;20026;-74
2022/10/28 06:31:56;;;;;;;14.52;10.10;;;12.30;99.90;;;;;;5026681;28;20067;-74
2022/10/28 06:34:22;;;;;;;16.85;12.13;;;12.50;99.90;;;;;;5034346;28;20057;-74
2022/10/28 06:36:48;;;;;;;20.98;14.02;;;12.60;99.90;;;;;;5015198;28;20068;-74
2022/10/28 06:39:13;;;;;;;18.35;12.32;;;12.50;99.90;;;;;;5033046;28;20394;-74
2022/10/28 06:41:39;;;;;;;19.02;12.82;;;12.20;99.90;;;;;;5015274;28;20068;-74
2022/10/28 06:44:04;;;;;;;19.38;12.05;;;12.10;99.90;;;;;;5032907;28;20084;-74
2022/10/28 06:46:30;;;;;;;16.80;11.32;;;12.10;99.90;;;;;;5032790;28;20044;-74
2022/10/28 06:48:56;;;;;;;22.98;13.35;;;12.20;99.90;;;;;;5032752;28;20037;-74
2022/10/28 06:51:22;;;;;;;16.63;12.25;;;12.20;99.90;;;;;;5015050;28;20033;-73
2022/10/28 06:53:49;;;;;;;18.27;12.35;;;12.20;99.90;;;;;;5014941;28;20030;-75
2022/10/28 06:56:14;;;;;;;18.52;12.57;;;12.20;99.90;;;;;;5032822;28;20013;-75
2022/10/28 06:58:40;;;;;;;14.65;11.15;;;12.30;99.90;;;;;;5038240;28;20067;-72
2022/10/28 07:01:06;;;;;;;15.93;10.68;;;12.30;99.90;;;;;;5039908;28;20398;-75
2022/10/28 07:03:31;;;;;;;20.98;12.05;;;12.40;99.90;;;;;;5038005;28;20040;-74
2022/10/28 07:05:58;;;;;;;14.45;11.52;;;12.40;99.90;;;;;;5040994;28;20033;-74
2022/10/28 07:08:23;;;;;;;17.95;12.50;;;12.40;99.90;;;;;;5022415;28;20029;-75
2022/10/28 07:10:56;;;;;;;14.13;11.05;;;12.40;99.90;;;;;;5036860;28;20416;-74
2022/10/28 07:13:26;;;;;;;15.00;11.43;;;12.40;99.90;;;;;;5052269;28;20119;-74
2022/10/28 07:15:53;;;;;;;14.93;11.48;;;12.50;99.90;;;;;;5034327;28;20032;-74
2022/10/28 07:18:19;;;;;;;16.90;11.25;;;12.60;99.90;;;;;;5019100;28;20029;-75
2022/10/28 07:20:45;;;;;;;14.75;11.07;;;12.60;99.90;;;;;;5032384;28;20017;-75
2022/10/28 07:23:10;;;;;;;18.30;11.07;;;12.70;99.90;;;;;;5014586;28;20032;-75
2022/10/28 07:25:36;;;;;;;14.38;10.68;;;12.70;99.90;;;;;;5032283;28;20036;-74
2022/10/28 07:28:02;;;;;;;15.30;10.60;;;12.80;99.90;;;;;;5031858;28;20103;-74
2022/10/28 07:30:28;;;;;;;15.13;9.70;;;12.90;99.90;;;;;;5031930;28;20075;-74
2022/10/28 07:32:54;;;;;;;17.83;11.25;;;12.90;99.90;;;;;;5032151;28;20033;-75
2022/10/28 07:35:20;;;;;;;16.85;12.43;;;12.90;99.90;;;;;;5032032;28;20024;-75
2022/10/28 07:37:45;;;;;;;12.48;11.05;;;13.00;99.90;;;;;;5031944;28;20489;-74
2022/10/28 07:40:11;;;;;;;14.23;11.43;;;12.90;99.90;;;;;;5014074;28;20490;-74
2022/10/28 07:42:37;;;;;;;13.98;11.23;;;13.00;99.90;;;;;;5038684;28;20033;-74
2022/10/28 07:45:03;;;;;;;14.80;10.88;;;13.10;99.90;;;;;;5038548;28;20025;-74
2022/10/28 07:47:29;;;;;;;17.65;10.60;;;13.20;99.90;;;;;;5044650;28;20036;-74
2022/10/28 07:49:55;;;;;;;15.40;10.23;;;13.30;99.90;;;;;;5032102;28;20025;-74
2022/10/28 07:52:21;;;;;;;13.35;10.20;;;13.30;99.90;;;;;;5051823;28;20083;-75
2022/10/28 07:54:46;;;;;;;19.40;11.45;;;13.40;99.90;;;;;;5038228;28;20070;-73
2022/10/28 07:57:12;;;;;;;14.88;9.98;;;13.50;99.90;;;;;;5013630;28;20025;-75
2022/10/28 07:59:37;;;;;;;14.80;10.10;;;13.60;99.90;;;;;;5037851;28;20021;-75
2022/10/28 08:02:03;;;;;;;15.48;10.55;;;13.60;99.90;;;;;;5037127;28;20379;-74
2022/10/28 08:04:32;;;;;;;16.05;9.75;;;13.70;99.90;;;;;;5031674;28;20485;-75
2022/10/28 08:06:57;;;;;;;11.07;9.25;;;13.80;99.90;;;;;;5044520;28;20111;-74
2022/10/28 08:09:23;;;;;;;14.77;8.75;;;13.80;99.90;;;;;;5031702;28;20076;-75
2022/10/28 08:11:49;;;;;;;12.82;9.10;;;13.80;99.90;;;;;;5020737;28;20029;-75
2022/10/28 08:14:14;;;;;;;14.15;9.93;;;13.70;99.90;;;;;;5028257;28;20031;-74
2022/10/28 08:16:40;;;;;;;13.05;9.45;;;13.70;99.90;;;;;;5030732;28;20021;-74
2022/10/28 08:19:05;;;;;;;13.68;8.85;;;13.70;99.90;;;;;;5030766;28;20133;-75
2022/10/28 08:21:31;;;;;;;14.73;8.30;;;13.70;99.90;;;;;;5031160;28;20033;-74
2022/10/28 08:23:57;;;;;;;14.57;9.25;;;13.80;99.90;;;;;;5031570;28;20032;-75
2022/10/28 08:26:23;;;;;;;12.65;8.80;;;13.90;99.90;;;;;;5051100;28;20029;-75
2022/10/28 08:28:48;;;;;;;13.52;9.25;;;14.10;99.90;;;;;;5048609;28;20029;-75
2022/10/28 08:31:14;;;;;;;11.90;8.40;;;14.10;99.90;;;;;;5031546;28;20475;-74
2022/10/28 08:33:44;;;;;;;14.35;8.65;;;14.20;99.90;;;;;;5031266;28;20049;-74
2022/10/28 08:36:15;;;;;;;14.50;8.07;;;14.30;99.90;;;;;;5031255;28;20017;-75
2022/10/28 08:38:45;;;;;;;12.50;7.70;;;14.50;99.90;;;;;;5031145;28;20029;-75
2022/10/28 08:41:38;;;;;;;11.02;7.93;;;14.70;99.90;;;;;;5031139;28;20014;-75
2022/10/28 08:44:13;;;;;;;14.43;7.70;;;14.80;99.90;;;;;;5013525;28;20486;-74
2022/10/28 08:47:03;;;;;;;11.73;7.78;;;15.20;99.90;;;;;;5031034;28;20029;-75
2022/10/28 08:49:32;;;;;;;11.60;7.13;;;15.20;99.90;;;;;;5025591;28;20099;-74
2022/10/28 08:52:04;;;;;;;15.02;6.65;;;15.50;99.90;;;;;;5031249;28;20025;-75
2022/10/28 08:54:46;;;;;;;12.80;6.20;;;15.70;99.90;;;;;;5033132;28;20052;-75
2022/10/28 08:57:27;;;;;;;15.13;6.15;;;16.00;99.90;;;;;;5035001;28;20028;-74
2022/10/28 08:59:53;;;;;;;16.52;5.95;;;15.80;99.90;;;;;;5048342;28;20025;-75
2022/10/28 09:02:22;;;;;;;15.77;6.32;;;15.80;99.90;;;;;;5043981;28;20033;-74
2022/10/28 09:05:10;;;;;;;17.80;6.28;;;15.90;99.90;;;;;;5041427;28;20037;-74
2022/10/28 09:07:36;;;;;;;8.50;5.38;;;15.90;99.90;;;;;;5029384;28;20225;-74
2022/10/28 09:10:04;;;;;;;9.43;5.50;;;16.00;99.90;;;;;;5048298;28;20506;-74
2022/10/28 09:12:45;;;;;;;14.02;5.78;;;16.00;99.90;;;;;;5047524;28;20025;-74
2022/10/28 09:15:24;;;;;;;7.45;4.38;;;16.00;99.90;;;;;;5031429;28;20501;-74
2022/10/28 09:18:04;;;;;;;12.57;5.43;;;16.20;99.90;;;;;;5041239;28;20032;-74
2022/10/28 09:21:04;;;;;;;12.68;5.50;;;16.20;99.90;;;;;;5024754;28;20112;-74
2022/10/28 09:23:34;;;;;;;11.73;4.88;;;16.30;99.90;;;;;;5002183;28;20487;-74
2022/10/28 09:26:21;;;;;;;11.20;5.20;;;16.30;99.90;;;;;;5041393;28;20036;-75
2022/10/28 09:29:14;;;;;;;8.43;5.05;;;16.40;99.90;;;;;;5040995;28;20116;-74
2022/10/28 09:32:10;;;;;;;8.10;5.25;;;16.50;99.90;;;;;;5043729;28;20100;-74
2022/10/28 09:34:46;;;;;;;14.00;6.00;;;16.60;99.90;;;;;;5046192;28;20033;-75
2022/10/28 09:37:20;;;;;;;22.65;10.27;;;16.70;99.90;;;;;;5047628;28;20034;-75
2022/10/28 09:39:55;;;;;;;15.30;7.95;;;16.70;99.90;;;;;;5044902;28;20025;-74
2022/10/28 09:42:31;;;;;;;15.97;6.27;;;16.90;99.90;;;;;;5040104;28;20017;-74
2022/10/28 09:44:57;;;;;;;13.05;7.00;;;17.00;99.90;;;;;;5044935;28;20037;-74
2022/10/28 09:47:56;;;;;;;18.02;8.18;;;17.10;99.90;;;;;;5045988;28;20394;-74
2022/10/28 09:50:26;;;;;;;11.82;6.40;;;17.00;99.90;;;;;;5022551;28;20069;-75
2022/10/28 09:53:28;;;;;;;7.55;5.07;;;17.10;99.90;;;;;;5034072;28;20079;-75
2022/10/28 09:55:55;;;;;;;10.48;4.78;;;17.20;99.90;;;;;;5033893;28;20488;-75
2022/10/28 09:58:21;;;;;;;10.45;5.53;;;17.30;99.90;;;;;;5036325;28;20024;-75
2022/10/28 10:00:47;;;;;;;17.33;8.75;;;17.40;99.90;;;;;;5044240;28;20112;-75
2022/10/28 10:03:15;;;;;;;11.73;5.50;;;17.40;99.90;;;;;;5047480;28;20053;-75
2022/10/28 10:05:46;;;;;;;8.07;5.03;;;17.50;99.90;;;;;;5042409;28;20021;-74
2022/10/28 10:08:15;;;;;;;11.85;5.32;;;17.70;99.90;;;;;;5040187;28;20091;-74
2022/10/28 10:10:49;;;;;;;10.73;4.90;;;17.90;99.90;;;;;;5042649;28;20048;-74
2022/10/28 10:13:20;;;;;;;9.13;5.40;;;18.10;99.90;;;;;;5029144;28;20052;-75
2022/10/28 10:15:53;;;;;;;11.30;5.75;;;17.90;99.90;;;;;;5045414;28;20036;-74
2022/10/28 10:18:31;;;;;;;9.48;4.57;;;17.70;99.90;;;;;;5046125;28;20026;-74
2022/10/28 10:20:57;;;;;;;8.27;4.25;;;17.80;99.90;;;;;;5046824;28;20395;-75
2022/10/28 10:23:28;;;;;;;8.75;4.57;;;17.70;99.90;;;;;;5042225;28;20716;-75
2022/10/28 10:26:02;;;;;;;9.75;4.57;;;17.60;99.90;;;;;;5040094;28;20033;-74
2022/10/28 10:28:29;;;;;;;10.55;5.05;;;17.70;99.90;;;;;;5042736;28;20075;-74
2022/10/28 10:30:58;;;;;;;8.00;4.75;;;17.80;99.90;;;;;;5033240;28;20555;-74
2022/10/28 10:33:38;;;;;;;9.85;5.30;;;17.80;99.90;;;;;;5033433;28;20029;-75
2022/10/28 10:36:13;;;;;;;10.38;5.00;;;17.80;99.90;;;;;;5033183;28;20022;-75
2022/10/28 10:38:48;;;;;;;9.70;4.82;;;17.80;99.90;;;;;;5015049;28;20021;-74
2022/10/28 10:41:39;;;;;;;13.32;4.70;;;18.10;99.90;;;;;;5042120;28;20025;-75
2022/10/28 10:44:20;;;;;;;12.30;4.80;;;17.80;99.90;;;;;;5039791;28;20040;-74
2022/10/28 10:47:03;;;;;;;8.90;4.25;;;17.90;99.90;;;;;;5038676;28;20026;-75
2022/10/28 10:49:30;;;;;;;7.30;4.30;;;17.90;99.90;;;;;;5033101;28;20115;-74
2022/10/28 10:52:01;;;;;;;10.60;4.50;;;18.00;99.90;;;;;;5032849;28;20025;-75
2022/10/28 10:54:30;;;;;;;10.40;4.53;;;17.80;99.90;;;;;;5043537;28;20025;-75
2022/10/28 10:57:13;;;;;;;10.40;4.70;;;17.70;99.90;;;;;;5039202;28;20024;-74
2022/10/28 10:59:43;;;;;;;10.57;4.47;;;18.10;99.90;;;;;;5039537;28;20786;-76
2022/10/28 11:02:34;;;;;;;10.80;4.90;;;18.10;99.90;;;;;;5027248;28;20037;-75
2022/10/28 11:05:07;;;;;;;8.23;4.47;;;18.10;99.90;;;;;;5034332;28;20025;-75
2022/10/28 11:07:33;;;;;;;13.23;5.03;;;18.00;99.90;;;;;;5042901;28;20028;-75
2022/10/28 11:09:59;;;;;;;10.55;4.95;;;18.20;99.90;;;;;;5039119;28;20032;-75
2022/10/28 11:12:34;;;;;;;10.10;4.75;;;18.00;99.90;;;;;;5041829;28;20091;-75
2022/10/28 11:15:07;;;;;;;9.95;4.80;;;17.70;99.90;;;;;;5045845;28;20053;-75
2022/10/28 11:17:33;;;;;;;10.32;5.10;;;17.60;99.90;;;;;;5045119;28;20024;-74
2022/10/28 11:20:23;;;;;;;9.98;4.90;;;17.60;99.90;;;;;;5038892;28;20025;-75
2022/10/28 11:23:06;;;;;;;12.18;5.47;;;17.60;99.90;;;;;;5035933;28;20025;-75
2022/10/28 11:25:42;;;;;;;13.82;4.93;;;17.70;99.90;;;;;;5044049;28;20115;-74
2022/10/28 11:28:27;;;;;;;10.57;4.72;;;18.00;99.90;;;;;;5032682;28;20377;-75
2022/10/28 11:31:08;;;;;;;9.52;4.72;;;17.80;99.90;;;;;;5035072;28;20395;-75
2022/10/28 11:33:58;;;;;;;9.85;4.63;;;17.90;99.90;;;;;;5041115;28;20049;-75
2022/10/28 11:36:36;;;;;;;15.98;5.18;;;18.00;99.90;;;;;;5032218;28;20041;-75
2022/10/28 11:39:10;;;;;;;12.43;5.45;;;18.50;99.90;;;;;;5031966;28;20032;-75
2022/10/28 11:42:03;;;;;;;14.73;4.70;;;18.90;99.90;;;;;;5032052;28;20036;-75
2022/10/28 11:44:43;;;;;;;10.98;4.05;;;19.30;99.90;;;;;;5040770;28;20506;-76
2022/10/28 11:47:37;;;;;;;10.52;4.00;;;19.40;99.90;;;;;;5038498;28;20024;-75
2022/10/28 11:50:28;;;;;;;10.52;4.13;;;19.50;99.90;;;;;;5017811;28;20031;-76
2022/10/28 11:53:32;;;;;;;8.50;4.25;;;19.40;99.90;;;;;;5016848;28;20025;-75
2022/10/28 11:56:31;;;;;;;10.68;3.97;;;19.50;99.90;;;;;;5026438;28;20487;-75
2022/10/28 11:59:09;;;;;;;6.60;4.13;;;19.50;99.90;;;;;;5026192;28;20462;-77
2022/10/28 12:01:47;;;;;;;11.10;4.15;;;19.60;99.90;;;;;;5038162;28;20033;-75
2022/10/28 12:04:19;;;;;;;11.77;4.07;;;19.60;99.90;;;;;;5040813;28;20029;-75
2022/10/28 12:06:50;;;;;;;8.63;4.00;;;19.30;99.90;;;;;;5050312;28;20032;-76
2022/10/28 12:09:53;;;;;;;11.65;3.80;;;19.60;99.90;;;;;;5052121;28;20029;-77
2022/10/28 12:12:26;;;;;;;15.10;5.18;;;19.70;99.90;;;;;;5034156;28;20032;-76
2022/10/28 12:15:15;;;;;;;8.10;4.30;;;19.70;99.90;;;;;;5028739;28;20068;-75
2022/10/28 12:17:52;;;;;;;8.88;3.85;;;19.90;99.90;;;;;;5046478;28;20390;-75
2022/10/28 12:20:24;;;;;;;8.85;3.75;;;19.90;99.90;;;;;;5042005;28;20057;-75
2022/10/28 12:22:59;;;;;;;9.55;4.00;;;19.80;99.90;;;;;;5028053;28;20040;-76
2022/10/28 12:25:29;;;;;;;10.20;4.68;;;19.90;99.90;;;;;;5043495;28;20433;-75
2022/10/28 12:28:26;;;;;;;9.93;3.97;;;19.40;99.90;;;;;;5020125;28;20036;-75
2022/10/28 12:30:53;;;;;;;9.57;3.85;;;19.30;99.90;;;;;;5051051;28;20071;-75
2022/10/28 12:33:38;;;;;;;5.88;3.55;;;19.40;99.90;;;;;;5049232;28;20025;-75
2022/10/28 12:36:03;;;;;;;7.45;3.65;;;19.30;99.90;;;;;;5034621;28;20036;-75
2022/10/28 12:38:43;;;;;;;9.43;3.95;;;19.50;99.90;;;;;;5047764;28;20108;-75
2022/10/28 12:41:16;;;;;;;12.55;3.80;;;19.50;99.90;;;;;;5023416;28;20022;-75
2022/10/28 12:43:50;;;;;;;9.77;3.83;;;19.50;99.90;;;;;;5035385;28;20472;-75
2022/10/28 12:46:26;;;;;;;7.22;3.92;;;19.50;99.90;;;;;;5034495;28;20048;-75
2022/10/28 12:49:02;;;;;;;10.23;3.60;;;19.40;99.90;;;;;;5035013;28;20490;-75
2022/10/28 12:51:37;;;;;;;10.95;4.00;;;19.50;99.90;;;;;;5035178;28;20030;-75
2022/10/28 12:54:05;;;;;;;11.45;4.25;;;19.70;99.90;;;;;;5035190;28;20030;-75
2022/10/28 12:56:43;;;;;;;9.07;3.90;;;19.80;99.90;;;;;;5048417;28;20064;-74